createdAt,value
2024-02-21T00:01:01.625Z,32.50
2024-02-21T00:02:04.094Z,35.33
2024-02-21T00:03:06.514Z,43.08
2024-02-21T00:04:08.920Z,29.10
2024-02-21T00:05:11.293Z,42.30
2024-02-21T00:06:13.522Z,32.00
2024-02-21T00:07:15.896Z,35.25
2024-02-21T00:08:18.356Z,29.45
2024-02-21T00:09:21.291Z,32.63
2024-02-21T00:10:23.497Z,31.00
2024-02-21T00:11:26.142Z,35.95
2024-02-21T00:12:28.520Z,35.78
2024-02-21T00:13:31.154Z,37.13
2024-02-21T00:14:33.476Z,38.72
2024-02-21T00:15:35.640Z,35.33
2024-02-21T00:16:37.880Z,33.95
2024-02-21T00:17:40.719Z,38.08
2024-02-21T00:18:43.407Z,34.22
2024-02-21T00:19:45.721Z,37.08
2024-02-21T00:20:48.077Z,34.92
2024-02-21T00:21:50.331Z,45.60
2024-02-21T00:22:52.696Z,35.20
2024-02-21T00:23:55.018Z,36.83
2024-02-21T00:24:57.407Z,39.45
2024-02-21T00:25:59.872Z,46.00
2024-02-21T00:27:02.203Z,38.83
2024-02-21T00:28:04.911Z,34.22
2024-02-21T00:29:09.170Z,36.85
2024-02-21T00:30:12.109Z,36.85
2024-02-21T00:31:14.456Z,33.88
2024-02-21T00:32:16.822Z,35.47
2024-02-21T00:33:19.329Z,33.60
2024-02-21T00:34:21.916Z,35.92
2024-02-21T00:35:24.333Z,36.17
2024-02-21T00:36:26.608Z,33.55
2024-02-21T00:37:28.913Z,35.72
2024-02-21T00:38:31.229Z,35.65
2024-02-21T00:39:33.543Z,33.28
2024-02-21T00:40:36.412Z,37.55
2024-02-21T00:41:38.767Z,36.10
2024-02-21T00:42:41.069Z,38.60
2024-02-21T00:43:43.896Z,34.20
2024-02-21T00:44:46.236Z,32.10
2024-02-21T00:45:48.543Z,34.67
2024-02-21T00:46:50.874Z,32.53
2024-02-21T00:47:53.512Z,35.90
2024-02-21T00:48:56.009Z,37.78
2024-02-21T00:49:58.264Z,33.65
2024-02-21T00:51:00.641Z,35.80
2024-02-21T00:52:02.961Z,31.23
2024-02-21T00:53:05.158Z,34.85
2024-02-21T00:54:07.505Z,34.15
2024-02-21T00:55:10.459Z,27.83
2024-02-21T00:56:12.876Z,32.67
2024-02-21T00:57:15.083Z,35.42
2024-02-21T00:58:17.370Z,32.22
2024-02-21T00:59:19.694Z,29.58
2024-02-21T01:00:21.895Z,29.65
2024-02-21T01:01:27.077Z,28.65
2024-02-21T01:02:29.577Z,26.25
2024-02-21T01:03:31.927Z,28.63
2024-02-21T01:04:35.492Z,33.50
2024-02-21T01:05:37.766Z,33.78
2024-02-21T01:06:41.073Z,29.25
2024-02-21T01:07:43.452Z,29.23
2024-02-21T01:08:45.632Z,30.55
2024-02-21T01:09:47.972Z,30.58
2024-02-21T01:10:50.335Z,30.75
2024-02-21T01:11:52.680Z,30.65
2024-02-21T01:12:54.983Z,32.08
2024-02-21T01:13:57.337Z,27.08
2024-02-21T01:14:59.666Z,29.67
2024-02-21T01:16:01.859Z,27.08
2024-02-21T01:17:04.274Z,27.75
2024-02-21T01:18:06.699Z,31.15
2024-02-21T01:19:09.716Z,28.88
2024-02-21T01:20:12.542Z,30.02
2024-02-21T01:21:14.792Z,22.15
2024-02-21T01:22:17.442Z,28.15
2024-02-21T01:23:19.687Z,26.17
2024-02-21T01:24:21.888Z,34.28
2024-02-21T01:25:24.683Z,34.00
2024-02-21T01:26:26.927Z,31.75
2024-02-21T01:27:29.191Z,37.78
2024-02-21T01:28:31.871Z,32.10
2024-02-21T01:29:34.194Z,31.52
2024-02-21T01:30:36.436Z,30.70
2024-02-21T01:31:38.880Z,25.50
2024-02-21T01:32:41.204Z,28.30
2024-02-21T01:33:43.864Z,28.05
2024-02-21T01:34:46.264Z,30.73
2024-02-21T01:35:48.793Z,22.85
2024-02-21T01:36:51.264Z,25.45
2024-02-21T01:37:53.580Z,25.88
2024-02-21T01:38:55.834Z,32.28
2024-02-21T01:39:58.054Z,27.95
2024-02-21T01:41:00.725Z,31.38
2024-02-21T01:42:03.195Z,26.30
2024-02-21T01:43:20.052Z,32.88
2024-02-21T01:44:22.336Z,25.60
2024-02-21T01:45:24.582Z,29.52
2024-02-21T01:46:31.889Z,25.17
2024-02-21T01:47:34.675Z,30.88
2024-02-21T01:48:37.040Z,32.90
2024-02-21T01:49:39.440Z,23.73
2024-02-21T01:50:41.753Z,37.08
2024-02-21T01:51:44.103Z,27.88
2024-02-21T01:52:49.963Z,30.98
2024-02-21T01:53:54.154Z,31.05
2024-02-21T01:54:56.539Z,28.73
2024-02-21T01:55:58.968Z,25.95
2024-02-21T01:57:02.140Z,35.50
2024-02-21T01:58:04.783Z,26.17
2024-02-21T01:59:07.450Z,26.10
2024-02-21T02:00:11.383Z,31.48
2024-02-21T02:01:15.857Z,29.40
2024-02-21T02:02:20.191Z,33.83
2024-02-21T02:03:22.529Z,25.98
2024-02-21T02:04:26.065Z,34.50
2024-02-21T02:05:28.411Z,28.55
2024-02-21T02:06:32.096Z,34.85
2024-02-21T02:07:34.496Z,31.67
2024-02-21T02:08:36.945Z,30.55
2024-02-21T02:09:39.483Z,30.40
2024-02-21T02:10:42.357Z,25.23
2024-02-21T02:11:44.978Z,35.00
2024-02-21T02:12:47.234Z,33.28
2024-02-21T02:13:49.451Z,27.73
2024-02-21T02:15:02.148Z,30.92
2024-02-21T02:16:05.032Z,27.88
2024-02-21T02:17:07.335Z,32.60
2024-02-21T02:18:10.732Z,29.33
2024-02-21T02:19:14.838Z,32.03
2024-02-21T02:20:18.064Z,25.25
2024-02-21T02:21:30.549Z,29.20
2024-02-21T02:22:35.703Z,25.60
2024-02-21T02:23:37.931Z,31.58
2024-02-21T02:24:40.408Z,27.10
2024-02-21T02:25:42.766Z,26.27
2024-02-21T02:26:45.004Z,23.13
2024-02-21T02:27:47.433Z,26.25
2024-02-21T02:28:49.664Z,21.60
2024-02-21T02:29:52.732Z,29.88
2024-02-21T02:30:55.636Z,23.50
2024-02-21T02:31:57.965Z,26.27
2024-02-21T02:33:00.328Z,30.27
2024-02-21T02:34:02.786Z,23.98
2024-02-21T02:35:05.561Z,30.65
2024-02-21T02:36:07.808Z,26.83
2024-02-21T02:37:10.082Z,31.00
2024-02-21T02:38:16.016Z,30.45
2024-02-21T02:39:18.477Z,25.13
2024-02-21T02:40:20.875Z,25.65
2024-02-21T02:41:23.081Z,27.02
2024-02-21T02:42:25.366Z,27.45
2024-02-21T02:43:27.587Z,27.33
2024-02-21T02:44:29.996Z,26.13
2024-02-21T02:45:33.631Z,27.20
2024-02-21T02:46:35.882Z,29.70
2024-02-21T02:47:38.197Z,32.22
2024-02-21T02:48:40.603Z,26.85
2024-02-21T02:49:43.007Z,24.98
2024-02-21T02:50:45.222Z,32.28
2024-02-21T02:51:47.369Z,25.63
2024-02-21T02:52:49.741Z,30.48
2024-02-21T02:53:52.028Z,29.77
2024-02-21T02:54:56.552Z,29.52
2024-02-21T02:55:58.982Z,29.38
2024-02-21T02:57:01.231Z,32.25
2024-02-21T02:58:03.926Z,33.28
2024-02-21T02:59:06.202Z,23.92
2024-02-21T03:00:09.953Z,26.73
2024-02-21T03:01:12.362Z,30.95
2024-02-21T03:02:14.589Z,36.58
2024-02-21T03:03:16.862Z,27.70
2024-02-21T03:04:19.304Z,25.50
2024-02-21T03:05:22.992Z,26.10
2024-02-21T03:06:25.737Z,26.75
2024-02-21T03:07:28.118Z,31.00
2024-02-21T03:08:32.253Z,30.45
2024-02-21T03:09:40.211Z,28.45
2024-02-21T03:10:42.613Z,35.53
2024-02-21T03:11:45.709Z,33.50
2024-02-21T03:12:48.445Z,28.08
2024-02-21T03:13:52.118Z,25.92
2024-02-21T03:14:54.984Z,27.55
2024-02-21T03:15:57.149Z,34.40
2024-02-21T03:16:59.888Z,35.17
2024-02-21T03:18:02.208Z,31.92
2024-02-21T03:19:04.655Z,38.78
2024-02-21T03:20:11.763Z,27.50
2024-02-21T03:21:14.913Z,29.08
2024-02-21T03:22:17.333Z,34.88
2024-02-21T03:23:19.522Z,32.30
2024-02-21T03:24:22.453Z,33.60
2024-02-21T03:25:24.766Z,29.95
2024-02-21T03:26:27.013Z,27.98
2024-02-21T03:27:29.205Z,31.90
2024-02-21T03:28:31.449Z,33.25
2024-02-21T03:29:33.650Z,32.45
2024-02-21T03:30:35.925Z,35.15
2024-02-21T03:31:38.823Z,36.47
2024-02-21T03:32:41.077Z,29.63
2024-02-21T03:33:44.617Z,35.70
2024-02-21T03:34:47.444Z,37.30
2024-02-21T03:35:49.671Z,37.30
2024-02-21T03:36:51.884Z,44.75
2024-02-21T03:37:54.655Z,34.38
2024-02-21T03:38:57.019Z,36.15
2024-02-21T03:39:59.256Z,37.40
2024-02-21T03:41:01.644Z,38.40
2024-02-21T03:42:05.948Z,31.95
2024-02-21T03:43:08.260Z,31.00
2024-02-21T03:44:10.542Z,30.67
2024-02-21T03:45:12.826Z,33.50
2024-02-21T03:46:15.758Z,28.77
2024-02-21T03:47:18.012Z,32.97
2024-02-21T03:48:20.188Z,33.22
2024-02-21T03:49:22.917Z,38.03
2024-02-21T03:50:27.177Z,37.50
2024-02-21T03:51:29.507Z,44.38
2024-02-21T03:52:31.743Z,33.08
2024-02-21T03:53:34.179Z,38.05
2024-02-21T03:54:36.430Z,33.47
2024-02-21T03:55:38.633Z,35.13
2024-02-21T03:56:41.041Z,37.75
2024-02-21T03:57:43.320Z,26.42
2024-02-21T03:58:45.581Z,33.80
2024-02-21T03:59:50.758Z,36.67
2024-02-21T04:00:53.180Z,30.65
2024-02-21T04:01:55.714Z,29.58
2024-02-21T04:02:58.110Z,24.85
2024-02-21T04:04:00.371Z,30.55
2024-02-21T04:05:02.964Z,27.00
2024-02-21T04:06:05.548Z,32.85
2024-02-21T04:07:08.042Z,31.45
2024-02-21T04:08:10.216Z,38.65
2024-02-21T04:09:12.418Z,28.95
2024-02-21T04:10:14.689Z,27.23
2024-02-21T04:11:16.985Z,25.02
2024-02-21T04:12:19.240Z,29.35
2024-02-21T04:13:21.536Z,29.25
2024-02-21T04:14:23.761Z,30.38
2024-02-21T04:15:25.955Z,27.33
2024-02-21T04:16:28.172Z,29.60
2024-02-21T04:17:30.401Z,27.52
2024-02-21T04:18:32.676Z,24.58
2024-02-21T04:19:35.707Z,23.02
2024-02-21T04:20:37.942Z,31.63
2024-02-21T04:21:40.124Z,29.48
2024-02-21T04:22:44.844Z,26.02
2024-02-21T04:23:47.078Z,24.10
2024-02-21T04:24:49.277Z,25.27
2024-02-21T04:25:51.577Z,32.28
2024-02-21T04:26:54.040Z,25.77
2024-02-21T04:27:56.232Z,26.70
2024-02-21T04:28:58.573Z,22.08
2024-02-21T04:30:00.935Z,28.75
2024-02-21T04:31:03.357Z,30.75
2024-02-21T04:32:06.182Z,27.77
2024-02-21T04:33:08.666Z,25.33
2024-02-21T04:34:10.930Z,27.13
2024-02-21T04:35:13.269Z,28.67
2024-02-21T04:36:15.870Z,28.90
2024-02-21T04:37:18.142Z,32.90
2024-02-21T04:38:20.372Z,27.05
2024-02-21T04:39:22.599Z,28.30
2024-02-21T04:40:24.800Z,26.05
2024-02-21T04:41:27.098Z,29.90
2024-02-21T04:42:29.436Z,26.50
2024-02-21T04:43:31.672Z,25.10
2024-02-21T04:44:33.846Z,29.10
2024-02-21T04:45:36.077Z,29.63
2024-02-21T04:46:38.305Z,25.63
2024-02-21T04:47:40.524Z,31.77
2024-02-21T04:48:42.764Z,23.50
2024-02-21T04:49:45.055Z,23.48
2024-02-21T04:50:47.382Z,24.33
2024-02-21T04:51:49.608Z,22.35
2024-02-21T04:52:51.835Z,22.27
2024-02-21T04:53:54.084Z,28.23
2024-02-21T04:54:56.894Z,27.02
2024-02-21T04:55:59.533Z,27.70
2024-02-21T04:57:01.859Z,22.98
2024-02-21T04:58:04.288Z,23.20
2024-02-21T04:59:06.530Z,20.23
2024-02-21T05:00:09.474Z,26.25
2024-02-21T05:01:11.742Z,23.63
2024-02-21T05:02:15.494Z,26.83
2024-02-21T05:03:17.910Z,20.25
2024-02-21T05:04:20.316Z,26.30
2024-02-21T05:05:22.780Z,21.50
2024-02-21T05:06:25.052Z,26.00
2024-02-21T05:07:27.332Z,22.67
2024-02-21T05:08:29.599Z,18.48
2024-02-21T05:09:31.924Z,21.70
2024-02-21T05:10:34.190Z,23.80
2024-02-21T05:11:37.307Z,21.20
2024-02-21T05:12:39.553Z,19.15
2024-02-21T05:13:42.355Z,19.85
2024-02-21T05:14:44.526Z,19.38
2024-02-21T05:15:46.713Z,22.27
2024-02-21T05:16:48.992Z,19.73
2024-02-21T05:17:51.333Z,20.48
2024-02-21T05:18:53.625Z,20.65
2024-02-21T05:19:55.967Z,17.45
2024-02-21T05:20:58.299Z,15.55
2024-02-21T05:22:00.532Z,20.15
2024-02-21T05:23:02.819Z,18.45
2024-02-21T05:24:05.471Z,19.67
2024-02-21T05:25:08.334Z,21.70
2024-02-21T05:26:10.591Z,21.23
2024-02-21T05:27:13.255Z,21.15
2024-02-21T05:28:15.676Z,18.63
2024-02-21T05:29:17.895Z,18.40
2024-02-21T05:30:20.142Z,18.33
2024-02-21T05:31:22.755Z,20.67
2024-02-21T05:32:25.847Z,18.40
2024-02-21T05:33:28.157Z,15.75
2024-02-21T05:34:30.647Z,20.55
2024-02-21T05:35:33.072Z,19.48
2024-02-21T05:36:35.385Z,18.55
2024-02-21T05:37:37.581Z,17.27
2024-02-21T05:38:40.166Z,16.05
2024-02-21T05:39:42.362Z,15.85
2024-02-21T05:40:46.333Z,24.00
2024-02-21T05:41:48.587Z,16.70
2024-02-21T05:42:52.854Z,14.25
2024-02-21T05:43:55.145Z,15.95
2024-02-21T05:44:57.386Z,15.90
2024-02-21T05:45:59.718Z,19.00
2024-02-21T05:47:02.050Z,18.17
2024-02-21T05:48:07.558Z,17.00
2024-02-21T05:49:09.892Z,15.57
2024-02-21T05:50:12.261Z,19.25
2024-02-21T05:51:14.516Z,18.83
2024-02-21T05:52:17.053Z,19.60
2024-02-21T05:53:19.306Z,16.05
2024-02-21T05:54:21.512Z,15.85
2024-02-21T05:55:24.379Z,18.00
2024-02-21T05:56:26.937Z,19.00
2024-02-21T05:57:29.200Z,18.23
2024-02-21T05:58:32.552Z,20.15
2024-02-21T05:59:34.782Z,15.38
2024-02-21T06:00:38.161Z,19.13
2024-02-21T06:01:40.945Z,16.50
2024-02-21T06:02:43.206Z,17.38
2024-02-21T06:03:45.494Z,17.00
2024-02-21T06:04:47.857Z,15.77
2024-02-21T06:05:50.061Z,16.88
2024-02-21T06:06:52.341Z,19.95
2024-02-21T06:07:54.593Z,16.95
2024-02-21T06:08:56.993Z,15.45
2024-02-21T06:09:59.209Z,22.38
2024-02-21T06:11:01.528Z,22.23
2024-02-21T06:12:04.276Z,13.35
2024-02-21T06:13:06.494Z,25.33
2024-02-21T06:14:08.801Z,19.55
2024-02-21T06:15:11.081Z,17.80
2024-02-21T06:16:13.346Z,24.02
2024-02-21T06:17:15.709Z,21.70
2024-02-21T06:18:19.101Z,16.65
2024-02-21T06:19:21.722Z,17.98
2024-02-21T06:20:24.085Z,25.85
2024-02-21T06:21:30.457Z,24.02
2024-02-21T06:22:32.792Z,19.23
2024-02-21T06:23:34.996Z,21.10
2024-02-21T06:24:37.653Z,19.65
2024-02-21T06:25:40.176Z,20.67
2024-02-21T06:26:42.391Z,22.88
2024-02-21T06:27:44.971Z,19.00
2024-02-21T06:28:47.977Z,22.67
2024-02-21T06:29:50.203Z,20.90
2024-02-21T06:30:52.412Z,20.08
2024-02-21T06:31:54.618Z,29.15
2024-02-21T06:32:57.412Z,24.23
2024-02-21T06:33:59.739Z,27.38
2024-02-21T06:35:03.101Z,26.77
2024-02-21T06:36:05.921Z,25.40
2024-02-21T06:37:08.150Z,22.42
2024-02-21T06:38:10.513Z,22.88
2024-02-21T06:39:12.805Z,26.50
2024-02-21T06:40:15.143Z,25.75
2024-02-21T06:41:20.768Z,26.95
2024-02-21T06:42:25.766Z,26.50
2024-02-21T06:43:28.049Z,21.92
2024-02-21T06:44:30.404Z,26.45
2024-02-21T06:45:32.692Z,23.13
2024-02-21T06:46:34.966Z,25.30
2024-02-21T06:47:37.388Z,20.02
2024-02-21T06:48:39.905Z,24.55
2024-02-21T06:49:43.376Z,27.10
2024-02-21T06:50:45.806Z,25.23
2024-02-21T06:51:47.987Z,24.13
2024-02-21T06:52:50.281Z,23.50
2024-02-21T06:53:52.598Z,29.52
2024-02-21T06:54:54.765Z,32.65
2024-02-21T06:55:57.170Z,32.55
2024-02-21T06:57:00.804Z,27.98
2024-02-21T06:58:03.052Z,23.58
2024-02-21T06:59:05.340Z,25.90
2024-02-21T07:00:11.322Z,34.83
2024-02-21T07:01:13.715Z,28.48
2024-02-21T07:02:16.058Z,32.58
2024-02-21T07:03:18.361Z,29.08
2024-02-21T07:04:20.594Z,37.17
2024-02-21T07:05:23.541Z,34.85
2024-02-21T07:06:25.872Z,31.45
2024-02-21T07:07:28.269Z,27.20
2024-02-21T07:08:30.669Z,32.25
2024-02-21T07:09:33.403Z,28.60
2024-02-21T07:10:35.821Z,35.08
2024-02-21T07:11:38.060Z,32.22
2024-02-21T07:12:44.521Z,34.67
2024-02-21T07:13:46.771Z,32.53
2024-02-21T07:14:49.074Z,28.40
2024-02-21T07:15:51.329Z,40.90
2024-02-21T07:16:53.774Z,33.45
2024-02-21T07:17:56.103Z,32.78
2024-02-21T07:18:59.381Z,32.70
2024-02-21T07:20:02.731Z,34.70
2024-02-21T07:21:05.196Z,33.30
2024-02-21T07:22:07.403Z,36.58
2024-02-21T07:23:10.010Z,34.72
2024-02-21T07:24:12.507Z,38.85
2024-02-21T07:25:14.834Z,32.33
2024-02-21T07:26:17.103Z,29.40
2024-02-21T07:27:19.276Z,31.90
2024-02-21T07:28:21.545Z,36.50
2024-02-21T07:29:23.722Z,46.35
2024-02-21T07:30:25.958Z,33.65
2024-02-21T07:31:28.233Z,40.90
2024-02-21T07:32:30.548Z,34.72
2024-02-21T07:33:33.639Z,37.28
2024-02-21T07:34:35.945Z,35.67
2024-02-21T07:35:43.156Z,34.80
2024-02-21T07:36:46.671Z,38.20
2024-02-21T07:37:48.890Z,41.65
2024-02-21T07:38:51.517Z,37.55
2024-02-21T07:39:53.865Z,43.08
2024-02-21T07:40:56.468Z,39.10
2024-02-21T07:41:58.770Z,37.53
2024-02-21T07:43:01.037Z,45.72
2024-02-21T07:44:04.575Z,37.95
2024-02-21T07:45:08.289Z,46.17
2024-02-21T07:46:10.549Z,39.75
2024-02-21T07:47:12.922Z,43.22
2024-02-21T07:48:15.346Z,40.95
2024-02-21T07:49:17.625Z,44.72
2024-02-21T07:50:20.019Z,34.72
2024-02-21T07:51:22.452Z,41.03
2024-02-21T07:52:25.799Z,29.98
2024-02-21T07:53:28.039Z,37.10
2024-02-21T07:54:30.220Z,42.97
2024-02-21T07:55:32.645Z,43.97
2024-02-21T07:56:34.989Z,45.35
2024-02-21T07:57:37.584Z,38.38
2024-02-21T07:58:39.789Z,41.35
2024-02-21T07:59:42.082Z,33.72
2024-02-21T08:00:44.360Z,38.03
2024-02-21T08:01:46.636Z,41.13
2024-02-21T08:02:51.792Z,41.58
2024-02-21T08:03:54.268Z,39.70
2024-02-21T08:04:56.583Z,36.30
2024-02-21T08:05:58.956Z,37.67
2024-02-21T08:07:03.776Z,46.55
2024-02-21T08:08:06.395Z,41.90
2024-02-21T08:09:08.741Z,45.00
2024-02-21T08:10:11.031Z,54.33
2024-02-21T08:11:13.353Z,36.78
2024-02-21T08:12:15.649Z,45.05
2024-02-21T08:13:17.859Z,38.95
2024-02-21T08:14:21.362Z,48.55
2024-02-21T08:15:26.740Z,41.03
2024-02-21T08:16:29.038Z,50.20
2024-02-21T08:17:31.374Z,52.33
2024-02-21T08:18:37.396Z,39.03
2024-02-21T08:19:39.767Z,37.45
2024-02-21T08:20:42.108Z,41.38
2024-02-21T08:21:44.426Z,40.00
2024-02-21T08:22:46.648Z,36.92
2024-02-21T08:23:52.612Z,48.50
2024-02-21T08:24:55.048Z,36.40
2024-02-21T08:25:57.707Z,38.28
2024-02-21T08:26:59.957Z,40.97
2024-02-21T08:28:02.128Z,39.00
2024-02-21T08:29:04.439Z,40.78
2024-02-21T08:30:08.886Z,45.35
2024-02-21T08:31:11.190Z,42.00
2024-02-21T08:32:13.701Z,35.90
2024-02-21T08:33:17.776Z,45.63
2024-02-21T08:34:20.256Z,39.13
2024-02-21T08:35:25.685Z,41.85
2024-02-21T08:36:28.075Z,44.72
2024-02-21T08:37:30.309Z,42.25
2024-02-21T08:38:32.701Z,32.25
2024-02-21T08:39:34.935Z,41.30
2024-02-21T08:40:38.097Z,40.75
2024-02-21T08:41:51.405Z,43.05
2024-02-21T08:42:59.179Z,37.75
2024-02-21T08:44:01.861Z,46.33
2024-02-21T08:45:04.892Z,34.65
2024-02-21T08:46:07.309Z,46.50
2024-02-21T08:47:11.250Z,37.72
2024-02-21T08:48:13.644Z,38.83
2024-02-21T08:49:16.117Z,47.38
2024-02-21T08:50:24.002Z,37.45
2024-02-21T08:51:30.761Z,42.25
2024-02-21T08:52:33.145Z,34.92
2024-02-21T08:53:35.381Z,43.53
2024-02-21T08:54:37.655Z,35.70
2024-02-21T08:55:39.892Z,33.60
2024-02-21T08:56:42.483Z,43.13
2024-02-21T08:57:44.792Z,32.55
2024-02-21T08:58:48.037Z,31.55
2024-02-21T08:59:50.289Z,36.08
2024-02-21T09:00:52.558Z,35.72
2024-02-21T09:01:54.931Z,36.67
2024-02-21T09:02:57.622Z,34.78
2024-02-21T09:04:00.007Z,31.67
2024-02-21T09:05:02.384Z,33.83
2024-02-21T09:06:08.808Z,29.48
2024-02-21T09:07:12.078Z,31.00
2024-02-21T09:08:14.607Z,31.75
2024-02-21T09:09:16.844Z,33.85
2024-02-21T09:10:19.188Z,37.17
2024-02-21T09:11:21.505Z,34.70
2024-02-21T09:12:23.911Z,30.33
2024-02-21T09:13:26.242Z,30.20
2024-02-21T09:14:29.216Z,36.90
2024-02-21T09:15:34.701Z,32.20
2024-02-21T09:16:37.295Z,28.98
2024-02-21T09:17:40.492Z,30.20
2024-02-21T09:18:43.542Z,35.97
2024-02-21T09:19:46.037Z,33.42
2024-02-21T09:20:48.866Z,28.38
2024-02-21T09:21:51.147Z,29.48
2024-02-21T09:22:54.012Z,36.25
2024-02-21T09:23:59.788Z,35.60
2024-02-21T09:25:04.697Z,30.00
2024-02-21T09:26:07.209Z,29.00
2024-02-21T09:27:09.866Z,33.83
2024-02-21T09:28:12.151Z,25.95
2024-02-21T09:29:14.509Z,40.50
2024-02-21T09:30:17.058Z,33.60
2024-02-21T09:31:19.511Z,29.30
2024-02-21T09:32:21.816Z,35.83
2024-02-21T09:33:30.849Z,33.25
2024-02-21T09:34:35.298Z,29.80
2024-02-21T09:35:38.078Z,31.48
2024-02-21T09:36:41.605Z,33.25
2024-02-21T09:37:44.037Z,36.90
2024-02-21T09:38:46.229Z,33.97
2024-02-21T09:39:49.071Z,36.53
2024-02-21T09:41:04.982Z,28.77
2024-02-21T09:42:12.057Z,34.25
2024-02-21T09:43:18.981Z,26.65
2024-02-21T09:44:21.675Z,32.00
2024-02-21T09:45:25.398Z,32.15
2024-02-21T09:46:58.965Z,30.48
2024-02-21T09:48:35.810Z,25.38
2024-02-21T09:49:39.466Z,31.17
2024-02-21T09:50:44.367Z,43.55
2024-02-21T09:51:50.485Z,43.55
2024-02-21T09:52:54.082Z,29.50
2024-02-21T09:54:06.859Z,31.27
2024-02-21T09:55:17.626Z,31.90
2024-02-21T09:56:19.922Z,32.05
2024-02-21T09:57:24.173Z,36.22
2024-02-21T09:58:28.665Z,31.38
2024-02-21T09:59:33.618Z,31.27
2024-02-21T10:00:38.695Z,35.45
2024-02-21T10:01:41.159Z,23.85
2024-02-21T10:02:43.514Z,29.10
2024-02-21T10:03:46.006Z,30.65
2024-02-21T10:04:48.357Z,33.00
2024-02-21T10:05:53.691Z,37.65
2024-02-21T10:06:56.106Z,26.58
2024-02-21T10:07:58.465Z,24.00
2024-02-21T10:09:01.143Z,27.13
2024-02-21T10:10:04.544Z,26.17
2024-02-21T10:11:07.015Z,25.63
2024-02-21T10:12:11.407Z,29.83
2024-02-21T10:13:28.268Z,28.73
2024-02-21T10:14:30.702Z,29.58
2024-02-21T10:15:33.085Z,22.63
2024-02-21T10:16:35.716Z,29.17
2024-02-21T10:17:38.167Z,22.60
2024-02-21T10:18:40.884Z,26.20
2024-02-21T10:19:43.257Z,26.05
2024-02-21T10:20:46.229Z,29.17
2024-02-21T10:22:08.948Z,27.45
2024-02-21T10:23:12.016Z,20.90
2024-02-21T10:24:14.307Z,25.40
2024-02-21T10:25:16.619Z,23.73
2024-02-21T10:26:20.939Z,24.55
2024-02-21T10:27:24.838Z,38.00
2024-02-21T10:28:27.288Z,25.67
2024-02-21T10:29:29.526Z,28.42
2024-02-21T10:30:31.875Z,21.90
2024-02-21T10:31:34.703Z,18.75
2024-02-21T10:32:37.131Z,24.20
2024-02-21T10:33:39.619Z,25.15
2024-02-21T10:34:44.436Z,20.50
2024-02-21T10:35:48.311Z,22.95
2024-02-21T10:37:01.512Z,36.40
2024-02-21T10:38:04.879Z,25.65
2024-02-21T10:39:07.159Z,25.00
2024-02-21T10:40:09.919Z,21.67
2024-02-21T10:41:15.197Z,29.90
2024-02-21T10:42:22.355Z,27.30
2024-02-21T10:43:24.743Z,20.70
2024-02-21T10:44:30.601Z,23.95
2024-02-21T10:45:35.894Z,25.80
2024-02-21T10:46:40.083Z,21.60
2024-02-21T10:47:49.805Z,23.35
2024-02-21T10:49:26.586Z,22.27
2024-02-21T10:50:33.363Z,25.63
2024-02-21T10:51:38.590Z,21.17
2024-02-21T10:52:52.772Z,29.23
2024-02-21T10:54:10.870Z,22.83
2024-02-21T10:55:34.138Z,23.45
2024-02-21T10:56:39.493Z,27.40
2024-02-21T10:57:43.197Z,20.27
2024-02-21T10:58:47.068Z,20.70
2024-02-21T10:59:50.073Z,22.02
2024-02-21T11:00:52.954Z,21.13
2024-02-21T11:01:58.897Z,18.45
2024-02-21T11:03:02.444Z,20.92
2024-02-21T11:04:09.806Z,19.63
2024-02-21T11:05:13.193Z,16.73
2024-02-21T11:06:17.395Z,18.17
2024-02-21T11:07:20.757Z,16.30
2024-02-21T11:08:23.304Z,22.38
2024-02-21T11:09:35.294Z,20.30
2024-02-21T11:10:38.083Z,16.75
2024-02-21T11:11:43.011Z,19.17
2024-02-21T11:12:45.601Z,19.95
2024-02-21T11:13:47.976Z,21.67
2024-02-21T11:14:50.320Z,16.58
2024-02-21T11:15:52.590Z,18.20
2024-02-21T11:16:57.230Z,28.38
2024-02-21T11:18:01.889Z,18.70
2024-02-21T11:19:08.880Z,18.13
2024-02-21T11:20:15.027Z,17.63
2024-02-21T11:21:17.408Z,20.55
2024-02-21T11:22:26.135Z,17.48
2024-02-21T11:23:28.956Z,18.83
2024-02-21T11:24:35.485Z,20.27
2024-02-21T11:25:37.984Z,16.10
2024-02-21T11:26:44.862Z,18.20
2024-02-21T11:27:47.913Z,18.15
2024-02-21T11:29:01.183Z,18.40
2024-02-21T11:30:06.123Z,16.50
2024-02-21T11:31:17.486Z,16.00
2024-02-21T11:32:21.784Z,19.60
2024-02-21T11:33:25.117Z,18.67
2024-02-21T11:34:27.632Z,15.32
2024-02-21T11:35:37.119Z,13.95
2024-02-21T11:36:53.765Z,20.10
2024-02-21T11:37:56.047Z,11.82
2024-02-21T11:39:08.728Z,20.67
2024-02-21T11:40:12.425Z,13.45
2024-02-21T11:41:17.008Z,20.30
2024-02-21T11:42:19.457Z,20.77
2024-02-21T11:43:21.894Z,13.65
2024-02-21T11:44:24.432Z,19.42
2024-02-21T11:45:28.424Z,21.05
2024-02-21T11:46:30.779Z,21.52
2024-02-21T11:47:33.049Z,17.15
2024-02-21T11:48:35.721Z,14.38
2024-02-21T11:49:42.407Z,18.48
2024-02-21T11:50:54.129Z,17.90
2024-02-21T11:52:05.436Z,14.60
2024-02-21T11:53:07.998Z,14.05
2024-02-21T11:54:12.303Z,16.05
2024-02-21T11:55:14.503Z,11.95
2024-02-21T11:56:16.741Z,12.70
2024-02-21T11:57:19.690Z,15.10
2024-02-21T11:58:21.997Z,16.38
2024-02-21T11:59:24.277Z,14.30
2024-02-21T12:00:27.273Z,15.60
2024-02-21T12:01:29.703Z,11.52
2024-02-21T12:02:32.078Z,15.13
2024-02-21T12:03:36.818Z,19.95
2024-02-21T12:04:39.376Z,10.93
2024-02-21T12:05:42.696Z,12.00
2024-02-21T12:06:46.561Z,10.10
2024-02-21T12:07:49.009Z,11.27
2024-02-21T12:08:51.324Z,14.60
2024-02-21T12:09:53.710Z,9.55
2024-02-21T12:10:56.982Z,15.30
2024-02-21T12:12:01.747Z,18.13
2024-02-21T12:13:10.504Z,9.73
2024-02-21T12:14:17.931Z,10.07
2024-02-21T12:15:20.870Z,13.02
2024-02-21T12:16:23.243Z,10.77
2024-02-21T12:17:25.650Z,11.68
2024-02-21T12:18:27.892Z,11.20
2024-02-21T12:19:31.097Z,12.10
2024-02-21T12:20:33.525Z,9.77
2024-02-21T12:21:38.773Z,11.85
2024-02-21T12:22:43.238Z,10.90
2024-02-21T12:23:48.149Z,14.82
2024-02-21T12:24:50.422Z,12.80
2024-02-21T12:25:55.548Z,10.75
2024-02-21T12:26:59.791Z,11.27
2024-02-21T12:28:02.151Z,12.70
2024-02-21T12:29:04.561Z,14.88
2024-02-21T12:30:11.145Z,9.88
2024-02-21T12:31:13.960Z,12.35
2024-02-21T12:32:16.265Z,10.60
2024-02-21T12:33:18.716Z,12.27
2024-02-21T12:34:28.075Z,11.15
2024-02-21T12:35:37.539Z,10.48
2024-02-21T12:36:44.371Z,11.10
2024-02-21T12:37:46.662Z,14.02
2024-02-21T12:38:49.975Z,12.80
2024-02-21T12:39:52.252Z,13.93
2024-02-21T12:40:54.716Z,7.30
2024-02-21T12:41:57.867Z,8.45
2024-02-21T12:43:03.972Z,10.32
2024-02-21T12:44:09.764Z,7.60
2024-02-21T12:45:12.341Z,7.57
2024-02-21T12:46:14.688Z,12.23
2024-02-21T12:47:17.259Z,9.18
2024-02-21T12:48:19.913Z,9.75
2024-02-21T12:49:22.371Z,9.82
2024-02-21T12:50:24.839Z,7.72
2024-02-21T12:51:27.180Z,16.42
2024-02-21T12:52:29.410Z,11.20
2024-02-21T12:53:33.774Z,20.23
2024-02-21T12:54:37.133Z,11.63
2024-02-21T12:55:39.841Z,13.43
2024-02-21T12:56:42.581Z,8.73
2024-02-21T12:57:44.889Z,12.65
2024-02-21T12:58:47.217Z,6.15
2024-02-21T12:59:49.450Z,11.00
2024-02-21T13:00:51.692Z,10.95
2024-02-21T13:01:54.173Z,8.43
2024-02-21T13:02:56.452Z,19.23
2024-02-21T13:04:01.404Z,12.80
2024-02-21T13:05:04.294Z,13.40
2024-02-21T13:06:09.281Z,7.80
2024-02-21T13:07:11.628Z,6.85
2024-02-21T13:08:13.899Z,7.93
2024-02-21T13:09:16.862Z,7.13
2024-02-21T13:10:19.836Z,8.13
2024-02-21T13:11:22.381Z,7.13
2024-02-21T13:12:24.723Z,8.43
2024-02-21T13:13:26.990Z,11.43
2024-02-21T13:14:29.365Z,8.18
2024-02-21T13:15:31.667Z,8.98
2024-02-21T13:16:40.455Z,9.43
2024-02-21T13:17:43.130Z,8.88
2024-02-21T13:18:48.480Z,14.55
2024-02-21T13:19:50.930Z,9.40
2024-02-21T13:20:53.371Z,9.18
2024-02-21T13:21:55.672Z,12.38
2024-02-21T13:22:59.104Z,10.55
2024-02-21T13:24:01.493Z,6.22
2024-02-21T13:25:04.713Z,7.88
2024-02-21T13:26:07.129Z,5.22
2024-02-21T13:27:09.511Z,6.95
2024-02-21T13:28:11.777Z,14.02
2024-02-21T13:29:13.994Z,10.32
2024-02-21T13:30:17.162Z,7.90
2024-02-21T13:31:19.459Z,8.93
2024-02-21T13:32:21.947Z,7.38
2024-02-21T13:33:24.182Z,9.88
2024-02-21T13:34:26.879Z,7.70
2024-02-21T13:35:29.600Z,8.70
2024-02-21T13:36:31.820Z,8.98
2024-02-21T13:37:34.136Z,7.20
2024-02-21T13:38:36.410Z,8.15